createdAt,value
2023-02-19T00:01:52.941Z,2.20
2023-02-19T00:04:23.647Z,2.50
2023-02-19T00:06:51.976Z,2.60
2023-02-19T00:09:21.494Z,2.30
2023-02-19T00:11:51.002Z,2.33
2023-02-19T00:14:21.789Z,2.43
2023-02-19T00:16:50.245Z,2.40
2023-02-19T00:19:21.678Z,2.40
2023-02-19T00:21:52.638Z,2.27
2023-02-19T00:24:21.805Z,2.53
2023-02-19T00:26:51.057Z,2.50
2023-02-19T00:29:24.711Z,2.30
2023-02-19T00:31:53.238Z,2.57
2023-02-19T00:34:21.476Z,3.23
2023-02-19T00:36:49.366Z,3.37
2023-02-19T00:39:18.999Z,3.87
2023-02-19T00:41:47.887Z,3.70
2023-02-19T00:44:17.409Z,4.03
2023-02-19T00:46:48.313Z,3.50
2023-02-19T00:49:20.664Z,3.53
2023-02-19T00:51:49.783Z,3.57
2023-02-19T00:54:22.544Z,3.10
2023-02-19T00:56:51.238Z,3.13
2023-02-19T00:59:20.620Z,3.47
2023-02-19T01:01:49.572Z,3.90
2023-02-19T01:04:18.424Z,4.20
2023-02-19T01:06:48.752Z,4.13
2023-02-19T01:09:16.680Z,3.27
2023-02-19T01:11:44.583Z,3.77
2023-02-19T01:14:13.581Z,3.20
2023-02-19T01:16:42.819Z,2.07
2023-02-19T01:19:11.755Z,1.80
2023-02-19T01:21:41.635Z,2.93
2023-02-19T01:24:11.327Z,4.07
2023-02-19T01:26:40.377Z,3.77
2023-02-19T01:29:08.412Z,2.63
2023-02-19T01:31:37.744Z,3.60
2023-02-19T01:34:07.306Z,2.53
2023-02-19T01:36:36.804Z,2.87
2023-02-19T01:39:07.245Z,2.37
2023-02-19T01:41:39.493Z,2.37
2023-02-19T01:44:46.985Z,1.80
2023-02-19T01:47:19.601Z,1.80
2023-02-19T01:49:55.881Z,1.90
2023-02-19T01:52:31.809Z,1.70
2023-02-19T01:55:03.408Z,1.80
2023-02-19T01:57:38.259Z,1.97
2023-02-19T02:00:11.624Z,1.63
2023-02-19T02:02:46.605Z,1.83
2023-02-19T02:05:29.174Z,1.80
2023-02-19T02:08:14.975Z,1.90
2023-02-19T02:10:44.089Z,1.27
2023-02-19T02:13:12.053Z,1.43
2023-02-19T02:15:56.169Z,1.50
2023-02-19T02:18:49.280Z,1.80
2023-02-19T02:21:37.539Z,2.17
2023-02-19T02:24:32.114Z,1.80
2023-02-19T02:27:27.716Z,1.70
2023-02-19T02:30:43.648Z,2.00
2023-02-19T02:33:26.364Z,1.63
2023-02-19T02:36:02.341Z,1.47
2023-02-19T02:38:35.994Z,2.00
2023-02-19T02:41:05.677Z,1.70
2023-02-19T02:43:34.294Z,1.60
2023-02-19T02:46:03.710Z,1.80
2023-02-19T02:48:42.655Z,1.40
2023-02-19T02:51:19.769Z,1.00
2023-02-19T02:54:27.097Z,0.93
2023-02-19T02:56:57.828Z,1.00
2023-02-19T02:59:34.523Z,0.50
2023-02-19T03:02:12.642Z,0.50
2023-02-19T03:05:09.281Z,0.60
2023-02-19T03:07:44.417Z,1.03
2023-02-19T03:10:18.906Z,0.40
2023-02-19T03:13:05.670Z,0.20
2023-02-19T03:16:03.180Z,0.30
2023-02-19T03:18:56.070Z,0.30
2023-02-19T03:21:28.359Z,0.50
2023-02-19T03:24:16.357Z,0.40
2023-02-19T03:26:53.999Z,0.30
2023-02-19T03:29:28.892Z,0.40
2023-02-19T03:32:09.787Z,0.30
2023-02-19T03:34:45.795Z,0.60
2023-02-19T03:37:21.787Z,0.90
2023-02-19T03:39:49.925Z,0.60
2023-02-19T03:42:36.484Z,0.40
2023-02-19T03:45:31.094Z,0.30
2023-02-19T03:48:24.394Z,0.50
2023-02-19T03:51:09.999Z,0.30
2023-02-19T03:53:52.823Z,0.40
2023-02-19T03:56:31.753Z,0.40
2023-02-19T03:59:10.463Z,0.50
2023-02-19T04:01:45.666Z,0.40
2023-02-19T04:04:20.862Z,0.70
2023-02-19T04:06:55.613Z,0.80
2023-02-19T04:09:26.176Z,0.70
2023-02-19T04:12:04.246Z,1.10
2023-02-19T04:14:44.979Z,1.30
2023-02-19T04:17:21.286Z,1.00
2023-02-19T04:19:54.256Z,1.27
2023-02-19T04:22:24.662Z,1.27
2023-02-19T04:24:56.399Z,1.30
2023-02-19T04:27:24.485Z,1.67
2023-02-19T04:29:52.408Z,1.40
2023-02-19T04:32:20.719Z,1.07
2023-02-19T04:34:49.019Z,1.10
2023-02-19T04:37:16.940Z,1.40
2023-02-19T04:39:46.359Z,1.30
2023-02-19T04:42:14.242Z,1.20
2023-02-19T04:44:45.492Z,1.20
2023-02-19T04:47:13.341Z,1.60
2023-02-19T04:49:41.225Z,2.03
2023-02-19T04:52:09.411Z,1.53
2023-02-19T04:54:37.314Z,1.60
2023-02-19T04:57:06.575Z,1.30
2023-02-19T04:59:34.880Z,1.57
2023-02-19T05:02:03.192Z,1.63
2023-02-19T05:04:31.302Z,2.33
2023-02-19T05:06:59.300Z,2.00
2023-02-19T05:09:27.288Z,2.60
2023-02-19T05:11:55.184Z,2.60
2023-02-19T05:14:24.716Z,2.30
2023-02-19T05:16:52.700Z,2.40
2023-02-19T05:19:20.892Z,2.33
2023-02-19T05:21:48.808Z,2.10
2023-02-19T05:24:16.691Z,1.33
2023-02-19T05:26:45.491Z,1.40
2023-02-19T05:29:13.515Z,1.20
2023-02-19T05:31:43.212Z,1.03
2023-02-19T05:34:11.216Z,1.27
2023-02-19T05:36:40.372Z,1.40
2023-02-19T05:39:09.414Z,1.10
2023-02-19T05:41:37.289Z,1.17
2023-02-19T05:44:05.330Z,1.30
2023-02-19T05:46:33.353Z,1.13
2023-02-19T05:49:03.216Z,1.50
2023-02-19T05:51:31.406Z,1.30
2023-02-19T05:53:59.438Z,1.50
2023-02-19T05:56:35.779Z,1.53
2023-02-19T05:59:08.322Z,1.90
2023-02-19T06:01:36.728Z,2.20
2023-02-19T06:04:06.797Z,2.10
2023-02-19T06:06:34.721Z,2.33
2023-02-19T06:09:02.668Z,2.53
2023-02-19T06:11:31.238Z,2.03
2023-02-19T06:13:59.492Z,2.03
2023-02-19T06:16:28.362Z,2.20
2023-02-19T06:18:56.554Z,2.10
2023-02-19T06:21:26.198Z,1.83
2023-02-19T06:23:54.085Z,1.80
2023-02-19T06:26:25.534Z,1.80
2023-02-19T06:28:55.344Z,2.20
2023-02-19T06:31:24.147Z,2.10
2023-02-19T06:33:52.092Z,2.20
2023-02-19T06:36:25.229Z,2.00
2023-02-19T06:38:53.555Z,1.90
2023-02-19T06:41:21.436Z,2.00
2023-02-19T06:43:49.640Z,2.10
2023-02-19T06:46:17.572Z,2.03
2023-02-19T06:48:46.805Z,2.73
2023-02-19T06:51:23.713Z,2.40
2023-02-19T06:53:52.946Z,1.97
2023-02-19T06:56:27.607Z,2.27
2023-02-19T06:58:57.923Z,3.17
2023-02-19T07:01:25.863Z,2.60
2023-02-19T07:03:54.516Z,1.90
2023-02-19T07:06:25.550Z,2.03
2023-02-19T07:08:57.720Z,2.10
2023-02-19T07:11:32.259Z,1.27
2023-02-19T07:14:02.907Z,1.43
2023-02-19T07:16:31.577Z,1.30
2023-02-19T07:19:00.927Z,1.30
2023-02-19T07:21:30.388Z,1.40
2023-02-19T07:23:59.744Z,1.70
2023-02-19T07:26:30.448Z,1.47
2023-02-19T07:28:58.697Z,1.53
2023-02-19T07:31:26.723Z,1.93
2023-02-19T07:33:55.764Z,1.20
2023-02-19T07:36:25.818Z,4.43
2023-02-19T07:38:57.818Z,1.40
2023-02-19T07:41:28.621Z,2.47
2023-02-19T07:43:59.410Z,1.57
2023-02-19T07:46:27.842Z,1.37
2023-02-19T07:48:55.703Z,2.40
2023-02-19T07:51:24.007Z,1.53
2023-02-19T07:53:52.530Z,1.87
2023-02-19T07:56:21.621Z,1.57
2023-02-19T07:58:51.119Z,1.60
2023-02-19T08:01:43.057Z,1.27
2023-02-19T08:04:13.941Z,1.20
2023-02-19T08:06:42.688Z,0.93
2023-02-19T08:09:11.351Z,1.03
2023-02-19T08:11:56.747Z,0.60
2023-02-19T08:14:27.671Z,1.00
2023-02-19T08:16:56.410Z,0.70
2023-02-19T08:19:24.870Z,0.80
2023-02-19T08:21:53.443Z,0.87
2023-02-19T08:24:21.434Z,1.40
2023-02-19T08:26:49.533Z,0.90
2023-02-19T08:29:17.417Z,1.00
2023-02-19T08:31:46.806Z,1.10
2023-02-19T08:34:14.772Z,0.80
2023-02-19T08:36:44.075Z,1.30
2023-02-19T08:39:11.971Z,0.80
2023-02-19T08:41:39.853Z,0.93
2023-02-19T08:44:07.702Z,1.10
2023-02-19T08:46:35.583Z,0.70
2023-02-19T08:49:04.906Z,0.83
2023-02-19T08:51:32.808Z,0.70
2023-02-19T08:54:04.081Z,0.70
2023-02-19T08:56:32.323Z,0.87
2023-02-19T08:59:00.223Z,0.90
2023-02-19T09:01:28.293Z,0.80
2023-02-19T09:03:56.287Z,0.60
2023-02-19T09:06:25.522Z,0.60
2023-02-19T09:08:53.538Z,0.90
2023-02-19T09:11:21.785Z,1.07
2023-02-19T09:13:49.965Z,1.03
2023-02-19T09:16:20.771Z,0.97
2023-02-19T09:18:48.648Z,0.73
2023-02-19T09:21:16.547Z,0.67
2023-02-19T09:23:45.748Z,0.83
2023-02-19T09:26:14.044Z,1.00
2023-02-19T09:28:42.357Z,0.70
2023-02-19T09:31:14.775Z,0.90
2023-02-19T09:33:47.251Z,0.70
2023-02-19T09:36:17.130Z,1.07
2023-02-19T09:38:46.766Z,3.23
2023-02-19T09:41:25.268Z,4.40
2023-02-19T09:43:53.380Z,4.20
2023-02-19T09:46:32.873Z,1.00
2023-02-19T09:49:07.914Z,1.17
2023-02-19T09:51:41.030Z,1.10
2023-02-19T09:54:21.289Z,1.23
2023-02-19T09:56:49.823Z,1.50
2023-02-19T09:59:23.402Z,2.27
2023-02-19T10:02:00.476Z,2.70
2023-02-19T10:04:29.227Z,0.73
2023-02-19T10:07:03.593Z,4.30
2023-02-19T10:09:33.053Z,1.20
2023-02-19T10:12:01.395Z,0.93
2023-02-19T10:14:37.516Z,0.53
2023-02-19T10:17:08.170Z,0.40
2023-02-19T10:19:37.995Z,0.57
2023-02-19T10:22:06.422Z,0.77
2023-02-19T10:24:38.363Z,0.57
2023-02-19T10:27:12.936Z,0.80
2023-02-19T10:29:40.948Z,0.73
2023-02-19T10:32:23.808Z,0.80
2023-02-19T10:35:11.986Z,0.70
2023-02-19T10:37:47.115Z,1.00
2023-02-19T10:40:23.172Z,0.70
2023-02-19T10:42:55.046Z,0.97
2023-02-19T10:45:35.189Z,2.07
2023-02-19T10:48:04.588Z,1.20
2023-02-19T10:50:39.178Z,0.80
2023-02-19T10:53:07.229Z,1.17
2023-02-19T10:55:40.671Z,1.13
2023-02-19T10:58:26.463Z,0.90
2023-02-19T11:01:15.799Z,0.93
2023-02-19T11:03:44.791Z,0.80
2023-02-19T11:06:16.613Z,0.50
2023-02-19T11:08:55.077Z,0.90
2023-02-19T11:11:32.738Z,0.90
2023-02-19T11:14:06.072Z,0.80
2023-02-19T11:16:46.037Z,1.03
2023-02-19T11:19:39.016Z,1.07
2023-02-19T11:22:31.681Z,1.03
2023-02-19T11:25:07.282Z,0.80
2023-02-19T11:27:37.200Z,0.90
2023-02-19T11:30:38.295Z,0.80
2023-02-19T11:33:28.050Z,0.80
2023-02-19T11:36:29.979Z,0.60
2023-02-19T11:39:03.146Z,0.67
2023-02-19T11:41:59.841Z,0.67
2023-02-19T11:44:51.915Z,0.87
2023-02-19T11:47:56.953Z,1.00
2023-02-19T11:50:42.862Z,0.77
2023-02-19T11:53:25.872Z,1.00
2023-02-19T11:56:12.227Z,1.07
2023-02-19T11:59:04.846Z,1.67
2023-02-19T12:02:27.213Z,1.40
2023-02-19T12:05:24.327Z,1.20
2023-02-19T12:08:32.129Z,1.83
2023-02-19T12:11:22.907Z,2.50
2023-02-19T12:14:27.103Z,1.70
2023-02-19T12:17:06.275Z,1.70
2023-02-19T12:19:59.918Z,1.97
2023-02-19T12:22:31.896Z,2.00
2023-02-19T12:25:39.086Z,1.90
2023-02-19T12:28:36.066Z,1.60
2023-02-19T12:31:23.094Z,2.50
2023-02-19T12:34:32.503Z,1.80
2023-02-19T12:37:25.425Z,2.03
2023-02-19T12:40:14.861Z,1.10
2023-02-19T12:43:01.098Z,1.50
2023-02-19T12:45:39.553Z,1.60
2023-02-19T12:48:19.456Z,1.50
2023-02-19T12:50:51.814Z,1.60
2023-02-19T12:53:39.081Z,1.57
2023-02-19T12:56:15.975Z,1.60
2023-02-19T12:58:49.075Z,1.40
2023-02-19T13:01:25.123Z,1.27
2023-02-19T13:04:18.744Z,1.30
2023-02-19T13:06:54.523Z,1.93
2023-02-19T13:09:33.514Z,1.60
2023-02-19T13:12:09.162Z,1.60
2023-02-19T13:14:43.151Z,1.80
2023-02-19T13:17:24.869Z,1.70
2023-02-19T13:19:59.409Z,1.83
2023-02-19T13:22:57.446Z,1.40
2023-02-19T13:25:41.463Z,1.40
2023-02-19T13:28:23.365Z,1.37
2023-02-19T13:31:30.524Z,1.20
2023-02-19T13:34:15.995Z,1.53
2023-02-19T13:36:44.810Z,1.40
2023-02-19T13:39:17.164Z,1.43
2023-02-19T13:41:53.060Z,1.40
2023-02-19T13:44:24.103Z,0.93
2023-02-19T13:46:52.728Z,1.20
2023-02-19T13:49:50.151Z,1.30
2023-02-19T13:52:42.837Z,1.23
2023-02-19T13:55:49.815Z,1.10
2023-02-19T13:58:57.750Z,0.93
2023-02-19T14:02:30.511Z,0.90
2023-02-19T14:05:02.467Z,1.00
2023-02-19T14:07:53.706Z,1.13
2023-02-19T14:11:05.033Z,0.90
2023-02-19T14:14:06.606Z,1.00
2023-02-19T14:17:07.443Z,1.10
2023-02-19T14:19:54.588Z,1.20
2023-02-19T14:23:02.438Z,0.90
2023-02-19T14:25:48.955Z,1.30
2023-02-19T14:28:44.614Z,1.23
2023-02-19T14:31:23.299Z,1.80
2023-02-19T14:33:54.941Z,1.20
2023-02-19T14:36:36.755Z,1.17
2023-02-19T14:39:12.786Z,1.30
2023-02-19T14:41:46.534Z,1.03
2023-02-19T14:44:21.884Z,1.37
2023-02-19T14:46:59.875Z,1.43
2023-02-19T14:49:38.292Z,1.43
2023-02-19T14:52:16.857Z,0.90
2023-02-19T14:54:51.785Z,1.00
2023-02-19T14:57:24.979Z,1.30
2023-02-19T14:59:55.862Z,1.70
2023-02-19T15:02:26.171Z,1.33
2023-02-19T15:04:55.251Z,1.30
2023-02-19T15:07:29.113Z,1.40
2023-02-19T15:10:05.057Z,1.30
2023-02-19T15:12:42.288Z,1.07
2023-02-19T15:15:18.861Z,1.40
2023-02-19T15:17:48.276Z,1.40
2023-02-19T15:20:21.818Z,1.20
2023-02-19T15:22:50.847Z,1.83
2023-02-19T15:25:22.181Z,1.30
2023-02-19T15:27:51.243Z,1.10
2023-02-19T15:30:25.519Z,1.03
2023-02-19T15:32:57.426Z,1.20
2023-02-19T15:35:28.117Z,1.80
2023-02-19T15:37:56.720Z,1.13
2023-02-19T15:40:31.487Z,1.50
2023-02-19T15:43:01.128Z,1.40
2023-02-19T15:45:37.949Z,1.90
2023-02-19T15:48:15.362Z,1.23
2023-02-19T15:50:48.964Z,1.67
2023-02-19T15:53:22.584Z,1.53
2023-02-19T15:56:04.634Z,1.50
2023-02-19T15:58:40.302Z,1.50
2023-02-19T16:01:20.398Z,1.83
2023-02-19T16:03:49.996Z,2.50
2023-02-19T16:06:19.393Z,2.53
2023-02-19T16:09:01.977Z,2.70
2023-02-19T16:11:37.738Z,3.20
2023-02-19T16:14:24.788Z,2.47
2023-02-19T16:16:57.397Z,2.90
2023-02-19T16:19:30.059Z,3.27
2023-02-19T16:21:59.522Z,3.83
2023-02-19T16:24:36.832Z,3.97
2023-02-19T16:27:07.482Z,5.03
2023-02-19T16:29:35.606Z,5.70
2023-02-19T16:32:07.728Z,5.70
2023-02-19T16:34:43.187Z,6.77
2023-02-19T16:37:35.907Z,6.17
2023-02-19T16:41:02.158Z,7.70
2023-02-19T16:43:41.170Z,8.80
2023-02-19T16:46:12.822Z,10.97
2023-02-19T16:48:40.839Z,10.50
2023-02-19T16:51:18.544Z,9.80
2023-02-19T16:53:46.727Z,9.00
2023-02-19T16:56:21.153Z,6.57
2023-02-19T16:58:52.150Z,6.27
2023-02-19T17:01:20.167Z,5.20
2023-02-19T17:03:48.560Z,5.10
2023-02-19T17:06:18.193Z,6.13
2023-02-19T17:08:46.229Z,8.53
2023-02-19T17:11:17.923Z,9.77
2023-02-19T17:13:46.927Z,10.60
2023-02-19T17:16:21.076Z,10.80
2023-02-19T17:18:49.160Z,11.93
2023-02-19T17:21:22.921Z,11.07
2023-02-19T17:23:51.573Z,9.70
2023-02-19T17:26:23.194Z,8.10
2023-02-19T17:28:51.819Z,7.13
2023-02-19T17:31:19.844Z,8.73
2023-02-19T17:33:47.801Z,10.00
2023-02-19T17:36:21.487Z,8.93
2023-02-19T17:38:49.375Z,6.37
2023-02-19T17:41:17.684Z,5.77
2023-02-19T17:43:47.406Z,5.53
2023-02-19T17:46:16.598Z,5.30
2023-02-19T17:48:44.874Z,4.57
2023-02-19T17:51:13.758Z,3.90
2023-02-19T17:53:43.444Z,4.33
2023-02-19T17:56:17.542Z,4.90
2023-02-19T17:58:45.392Z,4.97
2023-02-19T18:01:13.786Z,6.03
2023-02-19T18:03:41.917Z,6.70
2023-02-19T18:06:10.017Z,4.87
2023-02-19T18:08:38.235Z,3.20
2023-02-19T18:11:08.647Z,2.90
2023-02-19T18:13:36.868Z,3.37
2023-02-19T18:16:07.285Z,2.63
2023-02-19T18:18:35.144Z,4.00
2023-02-19T18:21:03.064Z,3.47
2023-02-19T18:23:30.993Z,2.90
2023-02-19T18:25:59.018Z,3.67
2023-02-19T18:28:28.246Z,3.80
2023-02-19T18:30:56.510Z,3.40
2023-02-19T18:33:24.505Z,3.57
2023-02-19T18:35:52.447Z,4.40
2023-02-19T18:38:21.108Z,4.53
2023-02-19T18:40:48.986Z,4.10
2023-02-19T18:43:17.209Z,4.83
2023-02-19T18:45:47.184Z,5.67
2023-02-19T18:48:15.417Z,4.80
2023-02-19T18:50:43.292Z,4.57
2023-02-19T18:53:11.615Z,4.53
2023-02-19T18:55:39.549Z,4.20
2023-02-19T18:58:09.761Z,4.70
2023-02-19T19:00:37.877Z,5.73
2023-02-19T19:03:07.203Z,5.97
2023-02-19T19:05:35.268Z,7.27
2023-02-19T19:08:03.302Z,9.20
2023-02-19T19:10:31.712Z,10.93
2023-02-19T19:12:59.605Z,10.60
2023-02-19T19:15:27.581Z,10.50
2023-02-19T19:17:55.868Z,8.47
2023-02-19T19:20:25.297Z,6.10
2023-02-19T19:22:54.566Z,4.67
2023-02-19T19:25:23.768Z,7.57
2023-02-19T19:27:56.001Z,6.10
2023-02-19T19:30:24.321Z,5.23
2023-02-19T19:32:53.852Z,10.13
2023-02-19T19:35:23.079Z,11.23
2023-02-19T19:37:52.293Z,12.17
2023-02-19T19:40:20.954Z,13.00
2023-02-19T19:42:52.674Z,13.37
2023-02-19T19:45:21.309Z,8.03
2023-02-19T19:47:49.755Z,6.60
2023-02-19T19:50:19.132Z,7.00
2023-02-19T19:52:47.039Z,7.93
2023-02-19T19:55:17.585Z,5.77
2023-02-19T19:57:46.028Z,4.93
2023-02-19T20:00:17.761Z,4.80
2023-02-19T20:02:46.577Z,5.00
2023-02-19T20:05:15.458Z,5.67
2023-02-19T20:07:46.400Z,5.50
2023-02-19T20:10:19.882Z,4.93
2023-02-19T20:12:48.194Z,4.30
2023-02-19T20:15:21.677Z,4.13
2023-02-19T20:17:49.896Z,3.63
2023-02-19T20:20:18.952Z,6.47
2023-02-19T20:22:46.820Z,5.90
2023-02-19T20:25:16.033Z,4.60
2023-02-19T20:27:45.392Z,3.90
2023-02-19T20:30:16.573Z,3.60
2023-02-19T20:32:45.264Z,8.07
2023-02-19T20:35:17.603Z,9.77
2023-02-19T20:37:49.422Z,7.27
2023-02-19T20:40:19.152Z,5.93
2023-02-19T20:42:48.372Z,4.10
2023-02-19T20:45:17.571Z,3.40
2023-02-19T20:47:45.620Z,3.50
2023-02-19T20:50:13.708Z,3.10
2023-02-19T20:52:41.616Z,3.07
2023-02-19T20:55:10.851Z,2.47
2023-02-19T20:57:38.847Z,3.10
2023-02-19T21:00:11.144Z,8.03
2023-02-19T21:02:39.208Z,3.83
2023-02-19T21:05:07.562Z,4.83
2023-02-19T21:07:35.405Z,2.50
2023-02-19T21:10:03.283Z,2.73
2023-02-19T21:12:31.515Z,2.57
2023-02-19T21:14:59.472Z,2.80
2023-02-19T21:17:28.707Z,2.80
2023-02-19T21:19:56.656Z,2.13
2023-02-19T21:22:24.515Z,2.30
2023-02-19T21:24:55.038Z,2.40
2023-02-19T21:27:22.988Z,2.23
2023-02-19T21:29:50.973Z,2.37
2023-02-19T21:32:18.932Z,2.10
2023-02-19T21:34:48.868Z,2.63
2023-02-19T21:37:17.142Z,2.33
2023-02-19T21:39:45.260Z,2.90
2023-02-19T21:42:13.152Z,2.90
2023-02-19T21:44:43.077Z,2.50
2023-02-19T21:47:11.996Z,2.50
2023-02-19T21:49:41.750Z,2.73
2023-02-19T21:52:11.252Z,2.37
2023-02-19T21:54:39.294Z,2.43
2023-02-19T21:57:09.293Z,1.90
2023-02-19T21:59:37.364Z,2.57
2023-02-19T22:02:05.246Z,2.23
2023-02-19T22:04:33.133Z,2.17
2023-02-19T22:07:00.998Z,2.30
2023-02-19T22:09:30.317Z,2.47
2023-02-19T22:11:58.494Z,2.07
2023-02-19T22:14:26.382Z,2.10
2023-02-19T22:16:54.312Z,2.23
2023-02-19T22:19:22.203Z,1.80
2023-02-19T22:21:50.057Z,1.97
2023-02-19T22:24:21.397Z,2.00
2023-02-19T22:26:51.495Z,2.33
2023-02-19T22:29:19.375Z,2.40
2023-02-19T22:31:47.348Z,2.37
2023-02-19T22:34:16.043Z,2.47
2023-02-19T22:36:44.893Z,2.77
2023-02-19T22:39:19.766Z,2.60
2023-02-19T22:41:52.667Z,2.90
2023-02-19T22:44:21.013Z,2.43
2023-02-19T22:46:52.228Z,2.70
2023-02-19T22:49:21.675Z,2.60
2023-02-19T22:51:54.866Z,3.00
2023-02-19T22:54:26.702Z,2.70
2023-02-19T22:56:56.632Z,2.37
2023-02-19T22:59:24.716Z,3.00
2023-02-19T23:01:53.834Z,3.03
2023-02-19T23:04:23.616Z,3.43
2023-02-19T23:06:52.480Z,2.70
2023-02-19T23:09:24.167Z,2.83
2023-02-19T23:11:53.188Z,2.77
2023-02-19T23:14:24.315Z,3.10
2023-02-19T23:16:52.302Z,2.63
2023-02-19T23:19:20.266Z,2.80
2023-02-19T23:21:48.761Z,2.90
2023-02-19T23:24:17.569Z,2.90
2023-02-19T23:26:48.096Z,2.73
2023-02-19T23:29:18.597Z,3.30
2023-02-19T23:31:48.146Z,2.77
2023-02-19T23:34:16.635Z,3.20
2023-02-19T23:36:49.886Z,3.00
2023-02-19T23:39:20.771Z,2.63
2023-02-19T23:41:50.770Z,2.87
2023-02-19T23:44:19.974Z,3.50
2023-02-19T23:46:49.922Z,3.00
2023-02-19T23:49:19.343Z,2.50
2023-02-19T23:51:47.287Z,2.90
2023-02-19T23:54:15.450Z,2.60
2023-02-19T23:56:43.327Z,2.40
2023-02-19T23:59:11.235Z,2.70
